CYUB

Tuktoyaktuk Airport

Tuktoyaktuk, Northwest Territories, Canada
METAR CYUB 212100Z 06010KT 15SM SCT055 BKN090 09/04 A3001 RMK SC4AC2 SLP163
Observed Flight Rules
Jun-21 @ 21:00 UTC (an hour ago) Visual Flight Rules
Wind Visibility Clouds
60° at 10 knots 15 miles
  • Scattered at 5,500' AGL
  • Broken at 9,000' AGL
Temperatures Readings
Current 9°C / 48°F
Dewpoint 4°C / 39°F
Humidity 71%
Altimeter 30.01" Hg
Pressure 1016.3 hPa
Elevation 5
METAR CYUB 212100Z 06010KT 15SM SCT055 BKN090 09/04 A3001 RMK SC4AC2 SLP163
Observed Flight Rules
Jun-21 @ 21:00 UTC
(an hour ago)
VFR
Wind Visibility
60° at 10 knots 15 miles
Clouds
  • Scattered at 5,500' AGL
  • Broken at 9,000' AGL
Temperature Dewpoint
9°C / 48°F 4°C / 39°F
Humidity Altimeter Pressure
71% 30.01" Hg 1016.3 hPa